sensor_id;sensor_type;location;lat;lon;timestamp;pressure;altitude;pressure_sealevel;temperature;humidity
67931;BME280;63902;52.000;5.954;2023-03-31T00:00:11;99983.75;;;9.44;94.42
67931;BME280;63902;52.000;5.954;2023-03-31T00:01:12;99973.34;;;9.41;94.64
67931;BME280;63902;52.000;5.954;2023-03-31T00:02:13;99978.63;;;9.41;94.64
67931;BME280;63902;52.000;5.954;2023-03-31T00:03:13;99984.69;;;9.43;94.51
67931;BME280;63902;52.000;5.954;2023-03-31T00:04:14;99950.91;;;9.31;94.75
67931;BME280;63902;52.000;5.954;2023-03-31T00:05:14;99973.94;;;9.46;94.85
67931;BME280;63902;52.000;5.954;2023-03-31T00:06:15;99955.72;;;9.40;95.04
67931;BME280;63902;52.000;5.954;2023-03-31T00:07:15;99970.38;;;9.47;94.92
67931;BME280;63902;52.000;5.954;2023-03-31T00:08:16;99960.63;;;9.48;94.93
67931;BME280;63902;52.000;5.954;2023-03-31T00:09:16;99958.22;;;9.43;94.46
67931;BME280;63902;52.000;5.954;2023-03-31T00:10:17;99948.56;;;9.42;94.73
67931;BME280;63902;52.000;5.954;2023-03-31T00:11:18;99938.28;;;9.36;95.03
67931;BME280;63902;52.000;5.954;2023-03-31T00:12:19;99946.78;;;9.43;94.95
67931;BME280;63902;52.000;5.954;2023-03-31T00:13:19;99952.84;;;9.45;94.90
67931;BME280;63902;52.000;5.954;2023-03-31T00:14:21;99946.88;;;9.41;94.75
67931;BME280;63902;52.000;5.954;2023-03-31T00:15:22;99946.63;;;9.46;95.13
67931;BME280;63902;52.000;5.954;2023-03-31T00:16:23;99934.53;;;9.40;95.84
67931;BME280;63902;52.000;5.954;2023-03-31T00:17:23;99941.47;;;9.43;95.34
67931;BME280;63902;52.000;5.954;2023-03-31T00:18:24;99944.97;;;9.43;95.51
67931;BME280;63902;52.000;5.954;2023-03-31T00:19:24;99937.03;;;9.43;95.59
67931;BME280;63902;52.000;5.954;2023-03-31T00:20:25;99906.06;;;9.28;95.16
67931;BME280;63902;52.000;5.954;2023-03-31T00:21:25;99946.72;;;9.44;94.93
67931;BME280;63902;52.000;5.954;2023-03-31T00:22:26;99939.53;;;9.46;95.85
67931;BME280;63902;52.000;5.954;2023-03-31T00:23:26;99937.81;;;9.45;95.21
67931;BME280;63902;52.000;5.954;2023-03-31T00:24:28;99928.41;;;9.39;95.25
67931;BME280;63902;52.000;5.954;2023-03-31T00:25:28;99939.69;;;9.43;94.95
67931;BME280;63902;52.000;5.954;2023-03-31T00:26:29;99933.53;;;9.43;95.15
67931;BME280;63902;52.000;5.954;2023-03-31T00:27:30;99909.63;;;9.27;95.20
67931;BME280;63902;52.000;5.954;2023-03-31T00:28:30;99921.41;;;9.38;95.11
67931;BME280;63902;52.000;5.954;2023-03-31T00:29:32;99929.09;;;9.43;95.75
67931;BME280;63902;52.000;5.954;2023-03-31T00:30:33;99892.91;;;9.26;95.34
67931;BME280;63902;52.000;5.954;2023-03-31T00:31:34;99923.81;;;9.43;95.41
67931;BME280;63902;52.000;5.954;2023-03-31T00:32:34;99920.31;;;9.43;95.25
67931;BME280;63902;52.000;5.954;2023-03-31T00:33:35;99920.53;;;9.38;95.18
67931;BME280;63902;52.000;5.954;2023-03-31T00:34:35;99925.53;;;9.44;95.07
67931;BME280;63902;52.000;5.954;2023-03-31T00:35:36;99923.81;;;9.43;95.32
67931;BME280;63902;52.000;5.954;2023-03-31T00:36:36;99914.06;;;9.44;95.17
67931;BME280;63902;52.000;5.954;2023-03-31T00:37:37;99912.31;;;9.44;95.62
67931;BME280;63902;52.000;5.954;2023-03-31T00:38:37;99914.84;;;9.46;96.28
67931;BME280;63902;52.000;5.954;2023-03-31T00:39:38;99907.00;;;9.44;95.92
67931;BME280;63902;52.000;5.954;2023-03-31T00:40:43;99910.50;;;9.45;95.61
67931;BME280;63902;52.000;5.954;2023-03-31T00:41:44;99898.13;;;9.45;95.38
67931;BME280;63902;52.000;5.954;2023-03-31T00:42:44;99901.72;;;9.44;95.33
67931;BME280;63902;52.000;5.954;2023-03-31T00:44:00;99895.47;;;9.45;95.75
67931;BME280;63902;52.000;5.954;2023-03-31T00:45:25;99899.81;;;9.46;96.31
67931;BME280;63902;52.000;5.954;2023-03-31T00:46:29;99892.81;;;9.45;95.78
67931;BME280;63902;52.000;5.954;2023-03-31T00:47:30;99883.47;;;9.38;95.52
67931;BME280;63902;52.000;5.954;2023-03-31T00:48:31;99889.50;;;9.41;95.42
67931;BME280;63902;52.000;5.954;2023-03-31T00:49:33;99891.88;;;9.46;95.62
67931;BME280;63902;52.000;5.954;2023-03-31T00:50:36;99880.81;;;9.38;95.35
67931;BME280;63902;52.000;5.954;2023-03-31T00:51:40;99896.31;;;9.46;95.69
67931;BME280;63902;52.000;5.954;2023-03-31T00:52:42;99886.75;;;9.43;95.62
67931;BME280;63902;52.000;5.954;2023-03-31T00:53:42;99891.03;;;9.46;95.96
67931;BME280;63902;52.000;5.954;2023-03-31T00:54:47;99892.66;;;9.48;95.57
67931;BME280;63902;52.000;5.954;2023-03-31T00:55:50;99883.34;;;9.41;95.52
67931;BME280;63902;52.000;5.954;2023-03-31T00:56:54;99897.00;;;9.49;95.31
67931;BME280;63902;52.000;5.954;2023-03-31T00:57:56;99891.72;;;9.49;95.54
67931;BME280;63902;52.000;5.954;2023-03-31T00:59:01;99884.03;;;9.45;95.32
67931;BME280;63902;52.000;5.954;2023-03-31T01:00:05;99879.59;;;9.45;96.04
67931;BME280;63902;52.000;5.954;2023-03-31T01:01:12;99885.66;;;9.47;95.77
67931;BME280;63902;52.000;5.954;2023-03-31T01:02:16;99888.22;;;9.49;95.80
67931;BME280;63902;52.000;5.954;2023-03-31T01:03:18;99885.56;;;9.49;95.55
67931;BME280;63902;52.000;5.954;2023-03-31T01:04:19;99886.41;;;9.49;96.20
67931;BME280;63902;52.000;5.954;2023-03-31T04:00:47;99470.50;;;9.09;100.00
67931;BME280;63902;52.000;5.954;2023-03-31T04:04:08;99431.13;;;8.89;100.00
67931;BME280;63902;52.000;5.954;2023-03-31T04:05:08;99441.00;;;9.01;100.00
67931;BME280;63902;52.000;5.954;2023-03-31T04:06:09;99449.53;;;9.06;100.00
67931;BME280;63902;52.000;5.954;2023-03-31T04:07:10;99421.50;;;8.88;100.00
67931;BME280;63902;52.000;5.954;2023-03-31T04:08:10;99449.34;;;9.09;100.00
67931;BME280;63902;52.000;5.954;2023-03-31T04:09:11;99445.00;;;9.08;100.00
67931;BME280;63902;52.000;5.954;2023-03-31T04:10:11;99442.38;;;9.08;100.00
67931;BME280;63902;52.000;5.954;2023-03-31T04:11:14;99433.47;;;9.09;100.00
67931;BME280;63902;52.000;5.954;2023-03-31T04:12:14;99432.63;;;9.09;100.00
67931;BME280;63902;52.000;5.954;2023-03-31T04:13:15;99429.13;;;9.08;100.00
67931;BME280;63902;52.000;5.954;2023-03-31T04:14:16;99432.63;;;9.09;100.00
67931;BME280;63902;52.000;5.954;2023-03-31T04:15:16;99410.63;;;8.92;100.00
67931;BME280;63902;52.000;5.954;2023-03-31T04:16:18;99400.34;;;8.88;100.00
67931;BME280;63902;52.000;5.954;2023-03-31T04:17:19;99396.16;;;8.84;100.00
67931;BME280;63902;52.000;5.954;2023-03-31T04:18:19;99435.34;;;9.07;100.00
67931;BME280;63902;52.000;5.954;2023-03-31T04:19:20;99436.22;;;9.08;100.00
67931;BME280;63902;52.000;5.954;2023-03-31T04:20:20;99436.22;;;9.08;100.00
67931;BME280;63902;52.000;5.954;2023-03-31T04:21:22;99438.00;;;9.07;100.00
67931;BME280;63902;52.000;5.954;2023-03-31T04:22:22;99430.06;;;9.07;100.00
67931;BME280;63902;52.000;5.954;2023-03-31T04:23:23;99428.28;;;9.08;100.00
67931;BME280;63902;52.000;5.954;2023-03-31T04:24:24;99386.34;;;8.86;100.00
67931;BME280;63902;52.000;5.954;2023-03-31T04:25:24;99417.72;;;9.08;100.00
67931;BME280;63902;52.000;5.954;2023-03-31T04:26:27;99407.22;;;9.06;100.00
67931;BME280;63902;52.000;5.954;2023-03-31T04:27:28;99409.84;;;9.06;100.00
67931;BME280;63902;52.000;5.954;2023-03-31T04:28:28;99391.88;;;8.97;100.00
67931;BME280;63902;52.000;5.954;2023-03-31T04:29:29;99402.03;;;9.05;100.00
67931;BME280;63902;52.000;5.954;2023-03-31T04:30:29;99389.72;;;9.04;100.00
67931;BME280;63902;52.000;5.954;2023-03-31T04:31:31;99390.69;;;9.03;100.00
67931;BME280;63902;52.000;5.954;2023-03-31T04:32:32;99390.56;;;9.04;100.00
67931;BME280;63902;52.000;5.954;2023-03-31T04:33:32;99382.91;;;9.00;100.00
67931;BME280;63902;52.000;5.954;2023-03-31T04:34:33;99386.22;;;9.03;100.00
67931;BME280;63902;52.000;5.954;2023-03-31T04:35:33;99378.56;;;8.99;100.00
67931;BME280;63902;52.000;5.954;2023-03-31T04:36:34;99381.72;;;9.05;100.00
67931;BME280;63902;52.000;5.954;2023-03-31T04:37:34;99367.91;;;9.00;100.00
67931;BME280;63902;52.000;5.954;2023-03-31T04:38:35;99350.13;;;8.88;100.00
67931;BME280;63902;52.000;5.954;2023-03-31T04:39:35;99365.91;;;9.04;100.00
67931;BME280;63902;52.000;5.954;2023-03-31T04:40:36;99369.41;;;9.04;100.00
67931;BME280;63902;52.000;5.954;2023-03-31T04:41:36;99361.47;;;9.04;100.00
67931;BME280;63902;52.000;5.954;2023-03-31T04:42:37;99364.13;;;9.04;100.00
67931;BME280;63902;52.000;5.954;2023-03-31T04:43:37;99359.78;;;9.03;100.00
67931;BME280;63902;52.000;5.954;2023-03-31T04:44:38;99355.44;;;9.02;100.00
67931;BME280;63902;52.000;5.954;2023-03-31T04:45:38;99342.47;;;8.98;100.00
67931;BME280;63902;52.000;5.954;2023-03-31T04:46:40;99350.91;;;9.04;100.00
67931;BME280;63902;52.000;5.954;2023-03-31T04:47:40;99345.59;;;9.04;100.00
67931;BME280;63902;52.000;5.954;2023-03-31T04:48:41;99342.13;;;9.04;100.00
67931;BME280;63902;52.000;5.954;2023-03-31T04:49:42;99341.28;;;9.03;100.00
67931;BME280;63902;52.000;5.954;2023-03-31T04:50:42;99332.50;;;9.03;100.00
67931;BME280;63902;52.000;5.954;2023-03-31T04:51:42;99329.00;;;9.02;100.00
67931;BME280;63902;52.000;5.954;2023-03-31T04:52:43;99318.69;;;8.98;100.00
67931;BME280;63902;52.000;5.954;2023-03-31T04:53:44;99325.47;;;9.02;100.00
67931;BME280;63902;52.000;5.954;2023-03-31T04:54:44;99316.63;;;9.03;100.00
67931;BME280;63902;52.000;5.954;2023-03-31T04:55:45;99321.06;;;9.02;100.00
67931;BME280;63902;52.000;5.954;2023-03-31T04:56:45;99320.13;;;9.03;100.00
67931;BME280;63902;52.000;5.954;2023-03-31T04:57:46;99317.47;;;9.03;100.00
67931;BME280;63902;52.000;5.954;2023-03-31T04:58:46;99314.91;;;9.02;100.00
67931;BME280;63902;52.000;5.954;2023-03-31T04:59:47;99314.06;;;9.01;100.00
67931;BME280;63902;52.000;5.954;2023-03-31T05:00:47;99301.97;;;8.97;100.00
67931;BME280;63902;52.000;5.954;2023-03-31T05:01:49;99278.88;;;8.85;100.00
67931;BME280;63902;52.000;5.954;2023-03-31T05:02:50;99306.22;;;9.00;100.00
67931;BME280;63902;52.000;5.954;2023-03-31T05:03:50;99304.50;;;8.99;100.00
67931;BME280;63902;52.000;5.954;2023-03-31T05:04:51;99306.31;;;8.98;100.00
67931;BME280;63902;52.000;5.954;2023-03-31T05:05:51;99292.31;;;8.96;100.00
67931;BME280;63902;52.000;5.954;2023-03-31T05:06:52;99287.31;;;8.91;100.00
67931;BME280;63902;52.000;5.954;2023-03-31T05:07:52;99295.66;;;9.00;100.00
67931;BME280;63902;52.000;5.954;2023-03-31T05:08:53;99290.38;;;9.00;100.00
67931;BME280;63902;52.000;5.954;2023-03-31T05:09:53;99267.19;;;8.89;100.00
67931;BME280;63902;52.000;5.954;2023-03-31T05:10:54;99284.22;;;8.99;100.00
67931;BME280;63902;52.000;5.954;2023-03-31T05:11:55;99280.69;;;8.99;100.00
67931;BME280;63902;52.000;5.954;2023-03-31T05:12:56;99277.22;;;8.98;100.00
67931;BME280;63902;52.000;5.954;2023-03-31T05:13:56;99275.53;;;8.97;100.00
67931;BME280;63902;52.000;5.954;2023-03-31T05:14:57;99270.50;;;8.92;100.00
67931;BME280;63902;52.000;5.954;2023-03-31T05:15:57;99257.56;;;8.88;100.00
67931;BME280;63902;52.000;5.954;2023-03-31T05:16:59;99268.44;;;8.98;100.00
67931;BME280;63902;52.000;5.954;2023-03-31T05:18:00;99233.56;;;8.77;100.00
67931;BME280;63902;52.000;5.954;2023-03-31T05:19:00;99250.38;;;8.90;100.00
67931;BME280;63902;52.000;5.954;2023-03-31T05:20:01;99264.00;;;8.98;100.00
67931;BME280;63902;52.000;5.954;2023-03-31T05:21:12;99270.22;;;8.97;100.00
67931;BME280;63902;52.000;5.954;2023-03-31T05:22:13;99267.66;;;8.95;100.00
67931;BME280;63902;52.000;5.954;2023-03-31T05:23:13;99270.22;;;8.97;100.00
67931;BME280;63902;52.000;5.954;2023-03-31T05:24:14;99254.94;;;8.88;100.00
67931;BME280;63902;52.000;5.954;2023-03-31T05:25:14;99270.22;;;8.97;100.00
67931;BME280;63902;52.000;5.954;2023-03-31T05:26:15;99258.22;;;8.91;100.00
67931;BME280;63902;52.000;5.954;2023-03-31T05:27:16;99224.75;;;8.76;100.00
67931;BME280;63902;52.000;5.954;2023-03-31T05:28:16;99259.84;;;8.94;100.00
67931;BME280;63902;52.000;5.954;2023-03-31T05:29:17;99230.16;;;8.74;100.00
67931;BME280;63902;52.000;5.954;2023-03-31T05:30:17;99264.09;;;8.96;100.00
67931;BME280;63902;52.000;5.954;2023-03-31T05:31:18;99248.31;;;8.95;100.00
67931;BME280;63902;52.000;5.954;2023-03-31T05:32:20;99231.47;;;8.82;100.00
67931;BME280;63902;52.000;5.954;2023-03-31T05:33:21;99232.41;;;8.81;100.00
67931;BME280;63902;52.000;5.954;2023-03-31T05:34:21;99221.25;;;8.76;100.00
67931;BME280;63902;52.000;5.954;2023-03-31T05:35:22;99238.88;;;8.91;100.00
67931;BME280;63902;52.000;5.954;2023-03-31T05:36:22;99243.22;;;8.92;100.00
67931;BME280;63902;52.000;5.954;2023-03-31T05:37:23;99243.97;;;8.94;100.00
67931;BME280;63902;52.000;5.954;2023-03-31T05:38:24;99243.97;;;8.94;100.00
67931;BME280;63902;52.000;5.954;2023-03-31T05:39:25;99225.25;;;8.83;100.00
67931;BME280;63902;52.000;5.954;2023-03-31T05:40:26;99243.97;;;8.94;100.00
67931;BME280;63902;52.000;5.954;2023-03-31T05:41:26;99233.59;;;8.91;100.00
67931;BME280;63902;52.000;5.954;2023-03-31T05:42:27;99219.97;;;8.83;100.00
67931;BME280;63902;52.000;5.954;2023-03-31T05:43:28;99236.13;;;8.92;100.00
67931;BME280;63902;52.000;5.954;2023-03-31T05:44:28;99243.03;;;8.95;100.00
67931;BME280;63902;52.000;5.954;2023-03-31T05:45:29;99237.91;;;8.92;100.00
67931;BME280;63902;52.000;5.954;2023-03-31T05:46:29;99236.78;;;8.96;100.00
67931;BME280;63902;52.000;5.954;2023-03-31T05:47:31;99232.44;;;8.95;100.00
67931;BME280;63902;52.000;5.954;2023-03-31T05:48:32;99225.34;;;8.95;100.00
67931;BME280;63902;52.000;5.954;2023-03-31T05:49:32;99228.84;;;8.96;100.00
67931;BME280;63902;52.000;5.954;2023-03-31T05:50:33;99238.50;;;8.97;100.00
67931;BME280;63902;52.000;5.954;2023-03-31T05:51:33;99233.22;;;8.97;100.00
67931;BME280;63902;52.000;5.954;2023-03-31T05:52:34;99215.56;;;8.98;100.00
67931;BME280;63902;52.000;5.954;2023-03-31T05:53:35;99220.00;;;8.97;100.00
67931;BME280;63902;52.000;5.954;2023-03-31T05:54:35;99221.69;;;8.98;100.00
67931;BME280;63902;52.000;5.954;2023-03-31T05:55:36;99213.75;;;8.98;100.00
67931;BME280;63902;52.000;5.954;2023-03-31T05:56:37;99204.31;;;8.94;100.00
67931;BME280;63902;52.000;5.954;2023-03-31T05:57:37;99200.97;;;8.90;100.00
67931;BME280;63902;52.000;5.954;2023-03-31T05:58:38;99193.75;;;8.94;100.00
67931;BME280;63902;52.000;5.954;2023-03-31T05:59:39;99203.94;;;9.00;100.00
67931;BME280;63902;52.000;5.954;2023-03-31T06:00:39;99202.41;;;8.96;100.00
67931;BME280;63902;52.000;5.954;2023-03-31T06:01:40;99203.94;;;9.00;100.00
67931;BME280;63902;52.000;5.954;2023-03-31T06:02:41;99196.84;;;9.01;100.00
67931;BME280;63902;52.000;5.954;2023-03-31T06:03:42;99189.94;;;8.98;100.00
67931;BME280;63902;52.000;5.954;2023-03-31T06:04:43;99182.00;;;8.98;100.00
67931;BME280;63902;52.000;5.954;2023-03-31T06:05:46;99192.22;;;9.04;100.00
67931;BME280;63902;52.000;5.954;2023-03-31T06:06:46;99193.09;;;9.05;100.00
67931;BME280;63902;52.000;5.954;2023-03-31T06:07:47;99163.13;;;8.90;100.00
67931;BME280;63902;52.000;5.954;2023-03-31T06:08:48;99185.22;;;9.03;100.00
67931;BME280;63902;52.000;5.954;2023-03-31T06:09:48;99179.09;;;9.03;100.00
67931;BME280;63902;52.000;5.954;2023-03-31T06:10:49;99184.28;;;9.04;100.00
67931;BME280;63902;52.000;5.954;2023-03-31T06:11:50;99187.03;;;9.03;100.00
67931;BME280;63902;52.000;5.954;2023-03-31T06:12:50;99187.63;;;9.08;100.00
67931;BME280;63902;52.000;5.954;2023-03-31T06:13:51;99187.63;;;9.08;100.00
67931;BME280;63902;52.000;5.954;2023-03-31T06:14:51;99193.81;;;9.07;100.00
67931;BME280;63902;52.000;5.954;2023-03-31T06:15:53;99177.69;;;8.97;100.00
67931;BME280;63902;52.000;5.954;2023-03-31T06:16:54;99191.09;;;9.08;100.00
67931;BME280;63902;52.000;5.954;2023-03-31T06:17:56;99183.16;;;9.08;100.00
67931;BME280;63902;52.000;5.954;2023-03-31T06:18:56;99169.44;;;9.02;100.00
67931;BME280;63902;52.000;5.954;2023-03-31T06:19:57;99177.22;;;9.05;100.00
67931;BME280;63902;52.000;5.954;2023-03-31T06:20:57;99160.00;;;8.98;100.00
67931;BME280;63902;52.000;5.954;2023-03-31T06:21:58;99180.97;;;9.01;100.00
67931;BME280;63902;52.000;5.954;2023-03-31T06:22:58;99153.38;;;8.90;100.00
67931;BME280;63902;52.000;5.954;2023-03-31T06:23:59;99179.69;;;9.08;100.00
67931;BME280;63902;52.000;5.954;2023-03-31T06:25:00;99187.63;;;9.08;100.00
67931;BME280;63902;52.000;5.954;2023-03-31T06:26:02;99188.47;;;9.08;100.00
67931;BME280;63902;52.000;5.954;2023-03-31T06:27:02;99156.16;;;8.89;100.00
67931;BME280;63902;52.000;5.954;2023-03-31T06:28:05;99180.41;;;9.10;100.00
67931;BME280;63902;52.000;5.954;2023-03-31T06:29:05;99176.34;;;9.04;100.00
67931;BME280;63902;52.000;5.954;2023-03-31T06:30:07;99173.50;;;9.07;100.00
67931;BME280;63902;52.000;5.954;2023-03-31T06:31:09;99151.44;;;8.94;100.00
67931;BME280;63902;52.000;5.954;2023-03-31T06:32:10;99172.59;;;9.08;100.00
67931;BME280;63902;52.000;5.954;2023-03-31T06:35:32;99176.47;;;9.17;100.00
67931;BME280;63902;52.000;5.954;2023-03-31T06:36:33;99169.38;;;9.17;100.00
67931;BME280;63902;52.000;5.954;2023-03-31T06:37:33;99170.13;;;9.19;100.00
67931;BME280;63902;52.000;5.954;2023-03-31T06:38:35;99174.47;;;9.21;100.00
67931;BME280;63902;52.000;5.954;2023-03-31T06:39:35;99173.53;;;9.22;100.00
67931;BME280;63902;52.000;5.954;2023-03-31T06:40:36;99175.22;;;9.23;100.00
67931;BME280;63902;52.000;5.954;2023-03-31T06:41:36;99140.28;;;9.03;100.00
67931;BME280;63902;52.000;5.954;2023-03-31T06:42:37;99172.47;;;9.24;100.00
67931;BME280;63902;52.000;5.954;2023-03-31T06:43:37;99173.34;;;9.25;100.00
67931;BME280;63902;52.000;5.954;2023-03-31T06:44:38;99165.59;;;9.22;100.00
67931;BME280;63902;52.000;5.954;2023-03-31T06:47:59;99164.25;;;9.29;100.00
67931;BME280;63902;52.000;5.954;2023-03-31T06:48:59;99163.50;;;9.27;100.00
67931;BME280;63902;52.000;5.954;2023-03-31T06:53:34;99156.03;;;9.33;100.00
67931;BME280;63902;52.000;5.954;2023-03-31T06:54:34;99163.69;;;9.38;100.00
67931;BME280;63902;52.000;5.954;2023-03-31T06:55:35;99165.41;;;9.39;100.00
67931;BME280;63902;52.000;5.954;2023-03-31T07:17:40;99140.44;;;9.43;100.00
67931;BME280;63902;52.000;5.954;2023-03-31T07:18:41;99143.91;;;9.44;100.00
67931;BME280;63902;52.000;5.954;2023-03-31T07:19:41;99149.13;;;9.45;100.00
67931;BME280;63902;52.000;5.954;2023-03-31T07:20:42;99138.94;;;9.39;100.00
67931;BME280;63902;52.000;5.954;2023-03-31T07:21:43;99143.06;;;9.43;100.00
67931;BME280;63902;52.000;5.954;2023-03-31T07:22:44;99111.09;;;9.19;100.00
67931;BME280;63902;52.000;5.954;2023-03-31T07:23:45;99148.47;;;9.41;100.00
67931;BME280;63902;52.000;5.954;2023-03-31T07:24:46;99116.19;;;9.22;100.00
67931;BME280;63902;52.000;5.954;2023-03-31T07:25:47;99145.84;;;9.41;100.00
67931;BME280;63902;52.000;5.954;2023-03-31T07:26:48;99121.38;;;9.24;100.00
67931;BME280;63902;52.000;5.954;2023-03-31T07:27:48;99146.03;;;9.38;100.00
67931;BME280;63902;52.000;5.954;2023-03-31T07:28:49;99142.69;;;9.35;100.00
67931;BME280;63902;52.000;5.954;2023-03-31T07:29:49;99147.81;;;9.38;100.00
67931;BME280;63902;52.000;5.954;2023-03-31T07:30:50;99112.97;;;9.17;100.00
67931;BME280;63902;52.000;5.954;2023-03-31T07:31:50;99142.44;;;9.39;100.00
67931;BME280;63902;52.000;5.954;2023-03-31T07:32:52;99141.47;;;9.40;100.00
67931;BME280;63902;52.000;5.954;2023-03-31T07:33:53;99111.09;;;9.19;100.00
67931;BME280;63902;52.000;5.954;2023-03-31T07:34:53;99142.44;;;9.39;100.00
67931;BME280;63902;52.000;5.954;2023-03-31T07:35:54;99139.78;;;9.39;100.00
67931;BME280;63902;52.000;5.954;2023-03-31T07:36:54;99142.34;;;9.41;100.00
67931;BME280;63902;52.000;5.954;2023-03-31T07:37:55;99125.97;;;9.34;100.00
67931;BME280;63902;52.000;5.954;2023-03-31T07:38:55;99135.25;;;9.41;100.00
67931;BME280;63902;52.000;5.954;2023-03-31T07:39:56;99101.34;;;9.19;100.00
67931;BME280;63902;52.000;5.954;2023-03-31T07:40:57;99134.50;;;9.39;100.00
67931;BME280;63902;52.000;5.954;2023-03-31T07:41:57;99130.03;;;9.40;100.00
67931;BME280;63902;52.000;5.954;2023-03-31T07:42:58;99136.19;;;9.40;100.00
67931;BME280;63902;52.000;5.954;2023-03-31T07:43:58;99128.34;;;9.39;100.00
67931;BME280;63902;52.000;5.954;2023-03-31T07:44:59;99124.75;;;9.40;100.00
67931;BME280;63902;52.000;5.954;2023-03-31T07:45:59;99127.38;;;9.40;100.00
67931;BME280;63902;52.000;5.954;2023-03-31T07:47:00;99122.22;;;9.38;100.00
67931;BME280;63902;52.000;5.954;2023-03-31T07:48:02;99110.50;;;9.28;100.00
67931;BME280;63902;52.000;5.954;2023-03-31T07:49:02;99125.78;;;9.37;100.00
67931;BME280;63902;52.000;5.954;2023-03-31T07:50:03;99103.31;;;9.30;100.00
67931;BME280;63902;52.000;5.954;2023-03-31T07:51:04;99107.38;;;9.36;100.00
67931;BME280;63902;52.000;5.954;2023-03-31T07:52:05;99104.72;;;9.36;100.00
67931;BME280;63902;52.000;5.954;2023-03-31T07:53:05;99102.66;;;9.27;100.00
67931;BME280;63902;52.000;5.954;2023-03-31T07:54:06;99110.94;;;9.35;100.00
67931;BME280;63902;52.000;5.954;2023-03-31T07:55:07;99065.75;;;9.11;100.00
67931;BME280;63902;52.000;5.954;2023-03-31T07:56:08;99098.69;;;9.34;100.00
67931;BME280;63902;52.000;5.954;2023-03-31T07:57:08;99097.84;;;9.33;100.00
67931;BME280;63902;52.000;5.954;2023-03-31T07:58:09;99093.38;;;9.34;100.00
67931;BME280;63902;52.000;5.954;2023-03-31T07:59:09;99093.38;;;9.34;100.00
67931;BME280;63902;52.000;5.954;2023-03-31T08:00:10;99098.69;;;9.34;100.00
67931;BME280;63902;52.000;5.954;2023-03-31T08:01:13;99097.72;;;9.35;100.00
67931;BME280;63902;52.000;5.954;2023-03-31T08:02:15;99088.28;;;9.31;100.00
67931;BME280;63902;52.000;5.954;2023-03-31T08:03:17;99080.56;;;9.28;100.00
67931;BME280;63902;52.000;5.954;2023-03-31T08:04:18;99058.47;;;9.14;100.00
67931;BME280;63902;52.000;5.954;2023-03-31T08:05:19;99094.22;;;9.34;100.00
67931;BME280;63902;52.000;5.954;2023-03-31T08:06:21;99078.09;;;9.25;100.00
67931;BME280;63902;52.000;5.954;2023-03-31T08:07:22;99095.06;;;9.35;100.00
67931;BME280;63902;52.000;5.954;2023-03-31T08:08:23;99090.75;;;9.34;100.00
67931;BME280;63902;52.000;5.954;2023-03-31T08:09:23;99088.94;;;9.34;100.00
67931;BME280;63902;52.000;5.954;2023-03-31T08:10:26;99085.44;;;9.34;100.00
67931;BME280;63902;52.000;5.954;2023-03-31T08:11:26;99073.56;;;9.27;100.00
67931;BME280;63902;52.000;5.954;2023-03-31T08:12:27;99079.41;;;9.32;100.00
67931;BME280;63902;52.000;5.954;2023-03-31T08:13:27;99081.97;;;9.33;100.00
67931;BME280;63902;52.000;5.954;2023-03-31T08:14:28;99081.84;;;9.35;100.00
67931;BME280;63902;52.000;5.954;2023-03-31T08:15:28;99071.47;;;9.32;100.00
67931;BME280;63902;52.000;5.954;2023-03-31T08:16:29;99076.47;;;9.36;100.00
67931;BME280;63902;52.000;5.954;2023-03-31T08:17:29;99069.78;;;9.31;100.00
67931;BME280;63902;52.000;5.954;2023-03-31T08:18:31;99076.47;;;9.36;100.00
67931;BME280;63902;52.000;5.954;2023-03-31T08:19:33;99061.00;;;9.30;100.00
67931;BME280;63902;52.000;5.954;2023-03-31T08:20:33;99070.34;;;9.36;100.00
67931;BME280;63902;52.000;5.954;2023-03-31T08:21:34;99069.38;;;9.37;100.00
67931;BME280;63902;52.000;5.954;2023-03-31T08:22:34;99064.84;;;9.39;100.00
67931;BME280;63902;52.000;5.954;2023-03-31T08:36:28;99053.66;;;9.48;100.00
67931;BME280;63902;52.000;5.954;2023-03-31T08:48:04;99045.72;;;9.88;100.00
67931;BME280;63902;52.000;5.954;2023-03-31T08:58:34;99056.00;;;10.20;100.00
67931;BME280;63902;52.000;5.954;2023-03-31T09:22:02;99040.53;;;10.78;100.00
67931;BME280;63902;52.000;5.954;2023-03-31T09:23:13;99049.22;;;10.80;100.00
67931;BME280;63902;52.000;5.954;2023-03-31T09:24:23;99040.53;;;10.78;100.00
67931;BME280;63902;52.000;5.954;2023-03-31T09:25:31;99041.91;;;10.83;100.00
67931;BME280;63902;52.000;5.954;2023-03-31T09:26:37;99045.28;;;10.85;100.00
67931;BME280;63902;52.000;5.954;2023-03-31T09:27:41;99038.19;;;10.86;100.00
67931;BME280;63902;52.000;5.954;2023-03-31T09:28:42;99039.91;;;10.87;100.00
67931;BME280;63902;52.000;5.954;2023-03-31T09:29:46;99032.03;;;10.85;100.00
67931;BME280;63902;52.000;5.954;2023-03-31T09:30:48;99034.38;;;10.90;100.00
67931;BME280;63902;52.000;5.954;2023-03-31T09:31:49;99036.91;;;10.91;100.00
67931;BME280;63902;52.000;5.954;2023-03-31T09:32:53;99032.34;;;10.93;100.00
67931;BME280;63902;52.000;5.954;2023-03-31T09:34:00;99022.56;;;10.94;100.00
67931;BME280;63902;52.000;5.954;2023-03-31T09:35:13;99027.78;;;10.95;100.00
67931;BME280;63902;52.000;5.954;2023-03-31T09:36:17;99026.06;;;10.94;100.00
67931;BME280;63902;52.000;5.954;2023-03-31T09:37:19;99020.75;;;10.94;100.00
67931;BME280;63902;52.000;5.954;2023-03-31T09:38:20;99024.25;;;10.95;100.00
67931;BME280;63902;52.000;5.954;2023-03-31T09:39:20;99018.94;;;10.95;100.00
67931;BME280;63902;52.000;5.954;2023-03-31T09:40:23;99019.69;;;10.97;100.00
67931;BME280;63902;52.000;5.954;2023-03-31T09:41:23;99011.22;;;10.92;100.00
67931;BME280;63902;52.000;5.954;2023-03-31T09:42:24;99024.91;;;10.98;100.00
67931;BME280;63902;52.000;5.954;2023-03-31T09:43:26;99027.44;;;11.00;100.00
67931;BME280;63902;52.000;5.954;2023-03-31T09:44:32;99016.53;;;10.92;100.00
67931;BME280;63902;52.000;5.954;2023-03-31T09:45:34;99021.06;;;11.03;100.00
67931;BME280;63902;52.000;5.954;2023-03-31T09:46:35;99025.44;;;11.04;100.00
67931;BME280;63902;52.000;5.954;2023-03-31T09:47:38;99022.78;;;11.04;100.00